Huvudsida
METAR-TAF:

METAR-TAF

Flygplatser :

Leuchars Station

Leuchars, Skottland

latitud: 56-23N, longitud: 002-52W, höjd: 12 m

Aktuellt väderrapport

Denna rapport gjordes för 59 minuter sedan, klockan 23:50 UTC
Vind 6 kt från ost/nordost
Temperatur 9°C
Fuktighet 93%
Tryck 1005 hPa
Sikt: 6000 m
Mulet på en höjd av 700 ft
fuktdis

METAR: EGQL 222350Z 06006KT 6000 BR OVC007 09/08 Q1005 GRN

Tid: 01:49 (00:49 UTC)

Väderprognos

Denna rapport gjordes för 2 timmar och 21 minuter sedan, klockan 22:28 UTC
Prognos gäller från 23 kl. 00 UTC till 23 kl. 09 UTC
Vind 8 kt från ost/nordost
Sikt: 8000 m
Få moln på en höjd av 4000 ft
torrdis
Temporärt
från 23 kl. 00 UTC till 23 kl. 09 UTC
Sikt: 6000 m
Sannolikhet 40% :
Temporärt
från 23 kl. 00 UTC till 23 kl. 09 UTC
Sikt: 4000 m
Spridda moln på en höjd av 700 ft
fuktdis

TAF: EGQL 222228Z 2300/2309 07008KT 8000 HZ FEW040 TEMPO 2300/2309 6000 PROB40 TEMPO 2300/2309 4000 BR SCT007

Aktuella väderrapporter och prognoser från 4000 flygplatser (METAR- och TAF-rapporter).

De tillgängliga stationerna syns som gula och röda prickar på kartan.

För musen över prickarna för att se namnen på stationerna.

Klicka sedan för att få väderrapporter och prognoser.

För att ändra kartan: Klicka på de gröna knapparna med ett svart kors på för att zooma in; den gröna knappen med ett streck på för att zooma ut; eller på de gröna pilarna för angränsande kartor.


METAR-TAF: